sensor_id;sensor_type;location;lat;lon;timestamp;temperature;humidity
29891;DHT22;16759;49.540;8.642;2022-10-14T00:00:39;14.00;99.90
29891;DHT22;16759;49.540;8.642;2022-10-14T00:03:05;13.90;99.90
29891;DHT22;16759;49.540;8.642;2022-10-14T00:05:31;13.90;99.90
29891;DHT22;16759;49.540;8.642;2022-10-14T00:07:56;13.60;99.90
29891;DHT22;16759;49.540;8.642;2022-10-14T00:10:22;13.80;99.90
29891;DHT22;16759;49.540;8.642;2022-10-14T00:12:47;13.90;99.90
29891;DHT22;16759;49.540;8.642;2022-10-14T00:15:15;13.80;99.90
29891;DHT22;16759;49.540;8.642;2022-10-14T00:17:41;13.80;99.90
29891;DHT22;16759;49.540;8.642;2022-10-14T00:20:07;13.80;99.90
29891;DHT22;16759;49.540;8.642;2022-10-14T00:22:32;13.80;99.90
29891;DHT22;16759;49.540;8.642;2022-10-14T00:24:58;13.60;99.90
29891;DHT22;16759;49.540;8.642;2022-10-14T00:27:23;13.70;99.90
29891;DHT22;16759;49.540;8.642;2022-10-14T00:29:49;13.70;99.90
29891;DHT22;16759;49.540;8.642;2022-10-14T00:32:16;13.70;99.90
29891;DHT22;16759;49.540;8.642;2022-10-14T00:34:42;13.90;99.90
29891;DHT22;16759;49.540;8.642;2022-10-14T00:37:07;13.70;99.90
29891;DHT22;16759;49.540;8.642;2022-10-14T00:39:33;13.70;99.90
29891;DHT22;16759;49.540;8.642;2022-10-14T00:41:58;13.80;99.90
29891;DHT22;16759;49.540;8.642;2022-10-14T00:46:49;13.80;99.90
29891;DHT22;16759;49.540;8.642;2022-10-14T00:49:19;13.70;99.90
29891;DHT22;16759;49.540;8.642;2022-10-14T00:51:47;13.80;99.90
29891;DHT22;16759;49.540;8.642;2022-10-14T00:54:14;13.80;99.90
29891;DHT22;16759;49.540;8.642;2022-10-14T00:56:40;13.80;99.90
29891;DHT22;16759;49.540;8.642;2022-10-14T00:59:06;13.70;99.90
29891;DHT22;16759;49.540;8.642;2022-10-14T01:01:32;13.70;99.90
29891;DHT22;16759;49.540;8.642;2022-10-14T01:04:00;13.90;99.90
29891;DHT22;16759;49.540;8.642;2022-10-14T01:11:20;13.60;99.90
29891;DHT22;16759;49.540;8.642;2022-10-14T01:13:49;13.90;99.90
29891;DHT22;16759;49.540;8.642;2022-10-14T01:16:22;13.80;99.90
29891;DHT22;16759;49.540;8.642;2022-10-14T01:21:25;13.80;99.90
29891;DHT22;16759;49.540;8.642;2022-10-14T01:31:33;13.90;99.90
29891;DHT22;16759;49.540;8.642;2022-10-14T01:34:00;13.90;99.90
29891;DHT22;16759;49.540;8.642;2022-10-14T01:41:33;13.80;99.90
29891;DHT22;16759;49.540;8.642;2022-10-14T01:44:04;13.90;99.90
29891;DHT22;16759;49.540;8.642;2022-10-14T01:46:32;13.90;99.90
29891;DHT22;16759;49.540;8.642;2022-10-14T01:49:00;13.90;99.90
29891;DHT22;16759;49.540;8.642;2022-10-14T01:51:28;13.90;99.90
29891;DHT22;16759;49.540;8.642;2022-10-14T01:54:05;13.90;99.90
29891;DHT22;16759;49.540;8.642;2022-10-14T01:56:33;13.70;99.90
29891;DHT22;16759;49.540;8.642;2022-10-14T01:59:02;13.90;99.90
29891;DHT22;16759;49.540;8.642;2022-10-14T02:01:28;13.90;99.90
29891;DHT22;16759;49.540;8.642;2022-10-14T02:03:53;14.00;99.90
29891;DHT22;16759;49.540;8.642;2022-10-14T02:11:16;14.00;99.90
29891;DHT22;16759;49.540;8.642;2022-10-14T02:19:02;13.80;99.90
29891;DHT22;16759;49.540;8.642;2022-10-14T02:23:59;13.80;99.90
29891;DHT22;16759;49.540;8.642;2022-10-14T02:26:27;13.90;99.90
29891;DHT22;16759;49.540;8.642;2022-10-14T02:28:54;13.90;99.90
29891;DHT22;16759;49.540;8.642;2022-10-14T02:31:20;13.90;99.90
29891;DHT22;16759;49.540;8.642;2022-10-14T02:33:50;13.90;99.90
29891;DHT22;16759;49.540;8.642;2022-10-14T02:36:19;13.90;99.90
29891;DHT22;16759;49.540;8.642;2022-10-14T02:38:45;13.90;99.90
29891;DHT22;16759;49.540;8.642;2022-10-14T02:41:12;13.80;99.90
29891;DHT22;16759;49.540;8.642;2022-10-14T02:43:38;13.80;99.90
29891;DHT22;16759;49.540;8.642;2022-10-14T02:46:04;13.80;99.90
29891;DHT22;16759;49.540;8.642;2022-10-14T02:48:30;13.70;99.90
29891;DHT22;16759;49.540;8.642;2022-10-14T02:50:55;13.80;99.90
29891;DHT22;16759;49.540;8.642;2022-10-14T02:53:23;13.60;99.90
29891;DHT22;16759;49.540;8.642;2022-10-14T02:55:49;13.80;99.90
29891;DHT22;16759;49.540;8.642;2022-10-14T02:58:14;13.60;99.90
29891;DHT22;16759;49.540;8.642;2022-10-14T03:00:40;13.60;99.90
29891;DHT22;16759;49.540;8.642;2022-10-14T03:03:05;13.30;99.90
29891;DHT22;16759;49.540;8.642;2022-10-14T03:05:31;13.50;99.90
29891;DHT22;16759;49.540;8.642;2022-10-14T03:07:59;13.50;99.90
29891;DHT22;16759;49.540;8.642;2022-10-14T03:10:26;13.80;99.90
29891;DHT22;16759;49.540;8.642;2022-10-14T03:12:52;13.40;99.90
29891;DHT22;16759;49.540;8.642;2022-10-14T03:15:17;13.50;99.90
29891;DHT22;16759;49.540;8.642;2022-10-14T03:17:43;13.60;99.90
29891;DHT22;16759;49.540;8.642;2022-10-14T03:20:08;13.60;99.90
29891;DHT22;16759;49.540;8.642;2022-10-14T03:22:34;13.40;99.90
29891;DHT22;16759;49.540;8.642;2022-10-14T03:24:59;13.10;99.90
29891;DHT22;16759;49.540;8.642;2022-10-14T03:27:25;13.50;99.90
29891;DHT22;16759;49.540;8.642;2022-10-14T03:29:51;13.70;99.90
29891;DHT22;16759;49.540;8.642;2022-10-14T03:32:18;13.50;99.90
29891;DHT22;16759;49.540;8.642;2022-10-14T03:34:44;13.50;99.90
29891;DHT22;16759;49.540;8.642;2022-10-14T03:37:09;13.70;99.90
29891;DHT22;16759;49.540;8.642;2022-10-14T03:39:37;13.60;99.90
29891;DHT22;16759;49.540;8.642;2022-10-14T03:42:05;13.60;99.90
29891;DHT22;16759;49.540;8.642;2022-10-14T03:44:30;13.50;99.90
29891;DHT22;16759;49.540;8.642;2022-10-14T03:46:55;13.40;99.90
29891;DHT22;16759;49.540;8.642;2022-10-14T03:49:21;13.50;99.90
29891;DHT22;16759;49.540;8.642;2022-10-14T03:51:46;13.50;99.90
29891;DHT22;16759;49.540;8.642;2022-10-14T03:54:12;13.50;99.90
29891;DHT22;16759;49.540;8.642;2022-10-14T03:56:37;13.50;99.90
29891;DHT22;16759;49.540;8.642;2022-10-14T03:59:05;13.50;99.90
29891;DHT22;16759;49.540;8.642;2022-10-14T04:01:31;13.50;99.90
29891;DHT22;16759;49.540;8.642;2022-10-14T04:03:56;13.70;99.90
29891;DHT22;16759;49.540;8.642;2022-10-14T04:06:24;13.70;99.90
29891;DHT22;16759;49.540;8.642;2022-10-14T04:08:52;13.70;99.90
29891;DHT22;16759;49.540;8.642;2022-10-14T04:11:17;13.60;99.90
29891;DHT22;16759;49.540;8.642;2022-10-14T04:13:43;13.70;99.90
29891;DHT22;16759;49.540;8.642;2022-10-14T04:16:09;13.60;99.90
29891;DHT22;16759;49.540;8.642;2022-10-14T04:18:35;13.90;99.90
29891;DHT22;16759;49.540;8.642;2022-10-14T04:21:04;13.70;99.90
29891;DHT22;16759;49.540;8.642;2022-10-14T04:23:30;13.70;99.90
29891;DHT22;16759;49.540;8.642;2022-10-14T04:25:58;13.90;99.90
29891;DHT22;16759;49.540;8.642;2022-10-14T04:28:26;13.60;99.90
29891;DHT22;16759;49.540;8.642;2022-10-14T04:30:52;13.80;99.90
29891;DHT22;16759;49.540;8.642;2022-10-14T04:33:17;13.60;99.90
29891;DHT22;16759;49.540;8.642;2022-10-14T04:35:45;13.60;99.90
29891;DHT22;16759;49.540;8.642;2022-10-14T04:38:10;13.60;99.90
29891;DHT22;16759;49.540;8.642;2022-10-14T04:40:36;13.60;99.90
29891;DHT22;16759;49.540;8.642;2022-10-14T04:43:01;13.80;99.90
29891;DHT22;16759;49.540;8.642;2022-10-14T04:45:27;13.80;99.90
29891;DHT22;16759;49.540;8.642;2022-10-14T04:47:53;13.70;99.90
29891;DHT22;16759;49.540;8.642;2022-10-14T04:50:18;13.80;99.90
29891;DHT22;16759;49.540;8.642;2022-10-14T04:52:44;13.60;99.90
29891;DHT22;16759;49.540;8.642;2022-10-14T04:55:10;13.70;99.90
29891;DHT22;16759;49.540;8.642;2022-10-14T04:57:35;13.70;99.90
29891;DHT22;16759;49.540;8.642;2022-10-14T05:00:03;13.80;99.90
29891;DHT22;16759;49.540;8.642;2022-10-14T05:02:28;13.90;99.90
29891;DHT22;16759;49.540;8.642;2022-10-14T05:04:56;13.80;99.90
29891;DHT22;16759;49.540;8.642;2022-10-14T05:07:22;13.70;99.90
29891;DHT22;16759;49.540;8.642;2022-10-14T05:09:47;14.00;99.90
29891;DHT22;16759;49.540;8.642;2022-10-14T05:12:13;13.80;99.90
29891;DHT22;16759;49.540;8.642;2022-10-14T05:14:39;14.00;99.90
29891;DHT22;16759;49.540;8.642;2022-10-14T05:17:04;13.90;99.90
29891;DHT22;16759;49.540;8.642;2022-10-14T05:19:29;13.80;99.90
29891;DHT22;16759;49.540;8.642;2022-10-14T05:21:55;13.80;99.90
29891;DHT22;16759;49.540;8.642;2022-10-14T05:24:20;13.80;99.90
29891;DHT22;16759;49.540;8.642;2022-10-14T05:26:48;13.90;99.90
29891;DHT22;16759;49.540;8.642;2022-10-14T05:29:14;14.10;99.90
29891;DHT22;16759;49.540;8.642;2022-10-14T05:31:41;14.00;99.90
29891;DHT22;16759;49.540;8.642;2022-10-14T05:34:07;13.80;99.90
29891;DHT22;16759;49.540;8.642;2022-10-14T05:36:32;13.90;99.90
29891;DHT22;16759;49.540;8.642;2022-10-14T05:38:58;13.90;99.90
29891;DHT22;16759;49.540;8.642;2022-10-14T05:41:26;14.00;99.90
29891;DHT22;16759;49.540;8.642;2022-10-14T05:43:51;13.90;99.90
29891;DHT22;16759;49.540;8.642;2022-10-14T05:46:19;13.80;99.90
29891;DHT22;16759;49.540;8.642;2022-10-14T05:48:48;14.10;99.90
29891;DHT22;16759;49.540;8.642;2022-10-14T05:51:13;13.90;99.90
29891;DHT22;16759;49.540;8.642;2022-10-14T05:53:39;14.00;99.90
29891;DHT22;16759;49.540;8.642;2022-10-14T05:56:08;14.00;99.90
29891;DHT22;16759;49.540;8.642;2022-10-14T05:58:34;14.00;99.90
29891;DHT22;16759;49.540;8.642;2022-10-14T06:01:00;13.90;99.90
29891;DHT22;16759;49.540;8.642;2022-10-14T06:03:26;14.00;99.90
29891;DHT22;16759;49.540;8.642;2022-10-14T06:05:51;14.10;99.90
29891;DHT22;16759;49.540;8.642;2022-10-14T06:08:17;14.10;99.90
29891;DHT22;16759;49.540;8.642;2022-10-14T06:10:42;14.10;99.90
29891;DHT22;16759;49.540;8.642;2022-10-14T06:13:08;14.10;99.90
29891;DHT22;16759;49.540;8.642;2022-10-14T06:15:34;14.10;99.90
29891;DHT22;16759;49.540;8.642;2022-10-14T06:17:59;14.10;99.90
29891;DHT22;16759;49.540;8.642;2022-10-14T06:20:27;13.90;99.90
29891;DHT22;16759;49.540;8.642;2022-10-14T06:22:52;14.20;99.90
29891;DHT22;16759;49.540;8.642;2022-10-14T06:25:20;14.20;99.90
29891;DHT22;16759;49.540;8.642;2022-10-14T06:27:48;14.40;99.90
29891;DHT22;16759;49.540;8.642;2022-10-14T06:30:13;14.30;99.90
29891;DHT22;16759;49.540;8.642;2022-10-14T06:32:39;14.30;99.90
29891;DHT22;16759;49.540;8.642;2022-10-14T06:35:05;14.30;99.90
29891;DHT22;16759;49.540;8.642;2022-10-14T06:37:30;14.40;99.90
29891;DHT22;16759;49.540;8.642;2022-10-14T06:39:56;14.30;99.90
29891;DHT22;16759;49.540;8.642;2022-10-14T06:42:21;14.40;99.90
29891;DHT22;16759;49.540;8.642;2022-10-14T06:44:47;14.30;99.90
29891;DHT22;16759;49.540;8.642;2022-10-14T06:47:12;14.40;99.90
29891;DHT22;16759;49.540;8.642;2022-10-14T06:49:38;14.40;99.90
29891;DHT22;16759;49.540;8.642;2022-10-14T06:52:03;14.50;99.90
29891;DHT22;16759;49.540;8.642;2022-10-14T06:54:29;14.50;99.90
29891;DHT22;16759;49.540;8.642;2022-10-14T06:56:54;14.50;99.90
29891;DHT22;16759;49.540;8.642;2022-10-14T06:59:20;14.50;99.90
29891;DHT22;16759;49.540;8.642;2022-10-14T07:01:47;14.50;99.90
29891;DHT22;16759;49.540;8.642;2022-10-14T07:04:13;14.60;99.90
29891;DHT22;16759;49.540;8.642;2022-10-14T07:06:38;14.60;99.90
29891;DHT22;16759;49.540;8.642;2022-10-14T07:09:04;14.60;99.90
29891;DHT22;16759;49.540;8.642;2022-10-14T07:11:29;14.60;99.90
29891;DHT22;16759;49.540;8.642;2022-10-14T07:13:55;14.60;99.90
29891;DHT22;16759;49.540;8.642;2022-10-14T07:16:20;14.70;99.90
29891;DHT22;16759;49.540;8.642;2022-10-14T07:18:48;14.70;99.90
29891;DHT22;16759;49.540;8.642;2022-10-14T07:21:16;14.80;99.90
29891;DHT22;16759;49.540;8.642;2022-10-14T07:23:41;14.90;99.90
29891;DHT22;16759;49.540;8.642;2022-10-14T07:26:07;14.90;99.90
29891;DHT22;16759;49.540;8.642;2022-10-14T07:28:37;14.90;99.90
29891;DHT22;16759;49.540;8.642;2022-10-14T07:31:06;15.00;99.90
29891;DHT22;16759;49.540;8.642;2022-10-14T07:33:33;15.10;99.90
29891;DHT22;16759;49.540;8.642;2022-10-14T07:36:02;15.20;99.90
29891;DHT22;16759;49.540;8.642;2022-10-14T07:38:28;15.30;99.90
29891;DHT22;16759;49.540;8.642;2022-10-14T07:41:03;15.30;99.90
29891;DHT22;16759;49.540;8.642;2022-10-14T07:43:31;15.30;99.90
29891;DHT22;16759;49.540;8.642;2022-10-14T07:46:01;15.30;99.90
29891;DHT22;16759;49.540;8.642;2022-10-14T07:48:28;15.30;99.90
29891;DHT22;16759;49.540;8.642;2022-10-14T07:50:54;15.20;99.90
29891;DHT22;16759;49.540;8.642;2022-10-14T07:53:22;15.20;99.90
29891;DHT22;16759;49.540;8.642;2022-10-14T07:55:47;15.20;99.90
29891;DHT22;16759;49.540;8.642;2022-10-14T07:58:22;15.20;99.90
29891;DHT22;16759;49.540;8.642;2022-10-14T08:00:50;15.20;99.90
29891;DHT22;16759;49.540;8.642;2022-10-14T08:03:16;15.20;99.90
29891;DHT22;16759;49.540;8.642;2022-10-14T08:05:42;15.30;99.90
29891;DHT22;16759;49.540;8.642;2022-10-14T08:08:07;15.30;99.90
29891;DHT22;16759;49.540;8.642;2022-10-14T08:10:33;15.40;99.90
29891;DHT22;16759;49.540;8.642;2022-10-14T08:12:59;15.40;99.90
29891;DHT22;16759;49.540;8.642;2022-10-14T08:15:24;15.40;99.90
29891;DHT22;16759;49.540;8.642;2022-10-14T08:17:55;15.40;99.90
29891;DHT22;16759;49.540;8.642;2022-10-14T08:20:20;15.40;99.90
29891;DHT22;16759;49.540;8.642;2022-10-14T08:22:46;15.30;99.90
29891;DHT22;16759;49.540;8.642;2022-10-14T08:25:11;15.40;99.90
29891;DHT22;16759;49.540;8.642;2022-10-14T08:27:37;15.40;99.90
29891;DHT22;16759;49.540;8.642;2022-10-14T08:30:04;15.40;99.90
29891;DHT22;16759;49.540;8.642;2022-10-14T08:32:30;15.40;99.90
29891;DHT22;16759;49.540;8.642;2022-10-14T08:34:55;15.40;99.90
29891;DHT22;16759;49.540;8.642;2022-10-14T08:37:23;15.40;99.90
29891;DHT22;16759;49.540;8.642;2022-10-14T08:39:51;15.50;99.90
29891;DHT22;16759;49.540;8.642;2022-10-14T08:42:19;15.60;99.90
29891;DHT22;16759;49.540;8.642;2022-10-14T08:44:50;15.70;99.90
29891;DHT22;16759;49.540;8.642;2022-10-14T08:47:19;15.70;99.90
29891;DHT22;16759;49.540;8.642;2022-10-14T08:52:20;15.90;99.90
29891;DHT22;16759;49.540;8.642;2022-10-14T08:54:47;16.00;99.90
29891;DHT22;16759;49.540;8.642;2022-10-14T08:57:20;16.10;99.90
29891;DHT22;16759;49.540;8.642;2022-10-14T08:59:45;16.10;99.90
29891;DHT22;16759;49.540;8.642;2022-10-14T09:04:57;16.10;99.90
29891;DHT22;16759;49.540;8.642;2022-10-14T09:07:26;16.10;99.90
29891;DHT22;16759;49.540;8.642;2022-10-14T09:09:53;16.10;99.90
29891;DHT22;16759;49.540;8.642;2022-10-14T09:12:25;16.10;99.90
29891;DHT22;16759;49.540;8.642;2022-10-14T09:15:36;16.20;99.90
29891;DHT22;16759;49.540;8.642;2022-10-14T09:20:14;16.30;99.90
29891;DHT22;16759;49.540;8.642;2022-10-14T09:22:41;16.40;99.90
29891;DHT22;16759;49.540;8.642;2022-10-14T09:25:13;16.50;99.90
29891;DHT22;16759;49.540;8.642;2022-10-14T09:27:39;16.50;99.90
29891;DHT22;16759;49.540;8.642;2022-10-14T09:30:05;16.60;99.90
29891;DHT22;16759;49.540;8.642;2022-10-14T09:32:40;16.70;99.90
29891;DHT22;16759;49.540;8.642;2022-10-14T09:35:12;16.80;99.90
29891;DHT22;16759;49.540;8.642;2022-10-14T09:37:38;17.00;99.90
29891;DHT22;16759;49.540;8.642;2022-10-14T09:40:08;17.00;99.90
29891;DHT22;16759;49.540;8.642;2022-10-14T09:42:50;17.10;99.90
29891;DHT22;16759;49.540;8.642;2022-10-14T09:45:20;17.20;99.90
29891;DHT22;16759;49.540;8.642;2022-10-14T09:50:19;17.30;99.90
29891;DHT22;16759;49.540;8.642;2022-10-14T09:52:50;17.60;99.90
29891;DHT22;16759;49.540;8.642;2022-10-14T09:55:17;17.80;99.90
29891;DHT22;16759;49.540;8.642;2022-10-14T09:57:44;17.70;99.90
29891;DHT22;16759;49.540;8.642;2022-10-14T10:00:22;17.90;99.90
29891;DHT22;16759;49.540;8.642;2022-10-14T10:02:48;17.90;99.90
29891;DHT22;16759;49.540;8.642;2022-10-14T10:08:00;17.80;99.90
29891;DHT22;16759;49.540;8.642;2022-10-14T10:10:27;17.70;99.90
29891;DHT22;16759;49.540;8.642;2022-10-14T10:12:56;17.60;99.90
29891;DHT22;16759;49.540;8.642;2022-10-14T10:15:24;17.50;99.90
29891;DHT22;16759;49.540;8.642;2022-10-14T10:17:50;17.50;99.90
29891;DHT22;16759;49.540;8.642;2022-10-14T10:22:44;17.60;99.90
29891;DHT22;16759;49.540;8.642;2022-10-14T10:30:23;17.40;99.90
29891;DHT22;16759;49.540;8.642;2022-10-14T10:35:21;17.10;99.90
29891;DHT22;16759;49.540;8.642;2022-10-14T10:40:21;17.30;99.90
29891;DHT22;16759;49.540;8.642;2022-10-14T10:48:06;17.20;99.90
29891;DHT22;16759;49.540;8.642;2022-10-14T10:53:14;17.00;99.90
29891;DHT22;16759;49.540;8.642;2022-10-14T10:55:54;17.10;99.90
29891;DHT22;16759;49.540;8.642;2022-10-14T11:09:25;17.00;99.90
29891;DHT22;16759;49.540;8.642;2022-10-14T11:12:15;16.80;99.90
29891;DHT22;16759;49.540;8.642;2022-10-14T11:19:52;16.30;99.90
29891;DHT22;16759;49.540;8.642;2022-10-14T11:38:05;16.40;99.90
29891;DHT22;16759;49.540;8.642;2022-10-14T11:40:36;16.30;99.90
29891;DHT22;16759;49.540;8.642;2022-10-14T11:43:08;16.40;99.90
29891;DHT22;16759;49.540;8.642;2022-10-14T11:45:52;16.30;99.90
29891;DHT22;16759;49.540;8.642;2022-10-14T11:48:25;16.30;99.90
29891;DHT22;16759;49.540;8.642;2022-10-14T11:50:56;16.30;99.90
29891;DHT22;16759;49.540;8.642;2022-10-14T11:53:38;16.30;99.90
29891;DHT22;16759;49.540;8.642;2022-10-14T11:56:17;16.20;99.90
29891;DHT22;16759;49.540;8.642;2022-10-14T11:58:44;16.20;99.90
29891;DHT22;16759;49.540;8.642;2022-10-14T12:01:11;16.20;99.90
29891;DHT22;16759;49.540;8.642;2022-10-14T12:11:32;16.10;99.90
29891;DHT22;16759;49.540;8.642;2022-10-14T12:14:02;16.00;99.90
29891;DHT22;16759;49.540;8.642;2022-10-14T12:16:29;16.00;99.90
29891;DHT22;16759;49.540;8.642;2022-10-14T12:18:55;16.00;99.90
29891;DHT22;16759;49.540;8.642;2022-10-14T12:26:59;16.10;99.90
29891;DHT22;16759;49.540;8.642;2022-10-14T12:29:27;16.10;99.90
29891;DHT22;16759;49.540;8.642;2022-10-14T12:34:35;16.20;99.90
29891;DHT22;16759;49.540;8.642;2022-10-14T12:39:50;16.50;99.90
29891;DHT22;16759;49.540;8.642;2022-10-14T12:42:18;16.60;99.90
29891;DHT22;16759;49.540;8.642;2022-10-14T12:44:49;16.50;99.90
29891;DHT22;16759;49.540;8.642;2022-10-14T12:47:17;16.60;99.90
29891;DHT22;16759;49.540;8.642;2022-10-14T12:50:03;16.70;99.90
29891;DHT22;16759;49.540;8.642;2022-10-14T12:52:34;16.80;99.90
29891;DHT22;16759;49.540;8.642;2022-10-14T12:55:00;17.00;99.90
29891;DHT22;16759;49.540;8.642;2022-10-14T12:57:39;16.90;99.90
29891;DHT22;16759;49.540;8.642;2022-10-14T13:00:11;17.10;99.90
29891;DHT22;16759;49.540;8.642;2022-10-14T13:02:53;17.10;99.90
29891;DHT22;16759;49.540;8.642;2022-10-14T13:05:35;17.00;99.90
29891;DHT22;16759;49.540;8.642;2022-10-14T13:13:45;16.50;99.90
29891;DHT22;16759;49.540;8.642;2022-10-14T13:15:50;16.60;99.90
29891;DHT22;16759;49.540;8.642;2022-10-14T13:23:56;17.00;99.90
29891;DHT22;16759;49.540;8.642;2022-10-14T13:26:27;17.00;99.90
29891;DHT22;16759;49.540;8.642;2022-10-14T13:34:16;16.80;99.90
29891;DHT22;16759;49.540;8.642;2022-10-14T13:39:49;17.10;99.90
29891;DHT22;16759;49.540;8.642;2022-10-14T13:42:25;17.10;99.90
29891;DHT22;16759;49.540;8.642;2022-10-14T13:44:51;17.00;99.90
29891;DHT22;16759;49.540;8.642;2022-10-14T13:47:20;17.10;99.90
29891;DHT22;16759;49.540;8.642;2022-10-14T13:49:46;17.00;99.90
29891;DHT22;16759;49.540;8.642;2022-10-14T13:52:22;17.00;99.90
29891;DHT22;16759;49.540;8.642;2022-10-14T13:54:51;17.10;99.90
29891;DHT22;16759;49.540;8.642;2022-10-14T13:57:28;17.40;99.90
29891;DHT22;16759;49.540;8.642;2022-10-14T13:59:54;17.50;99.90
29891;DHT22;16759;49.540;8.642;2022-10-14T14:02:22;17.30;99.90
29891;DHT22;16759;49.540;8.642;2022-10-14T14:04:52;17.40;99.90
29891;DHT22;16759;49.540;8.642;2022-10-14T14:07:20;17.50;99.90
29891;DHT22;16759;49.540;8.642;2022-10-14T14:09:50;17.70;99.90
29891;DHT22;16759;49.540;8.642;2022-10-14T14:12:17;17.50;99.90
29891;DHT22;16759;49.540;8.642;2022-10-14T14:14:43;17.40;99.90
29891;DHT22;16759;49.540;8.642;2022-10-14T14:17:19;17.30;99.90
29891;DHT22;16759;49.540;8.642;2022-10-14T14:19:45;16.90;99.90
29891;DHT22;16759;49.540;8.642;2022-10-14T14:22:29;16.80;99.90
29891;DHT22;16759;49.540;8.642;2022-10-14T14:27:40;16.40;99.90
29891;DHT22;16759;49.540;8.642;2022-10-14T14:30:18;16.50;99.90
29891;DHT22;16759;49.540;8.642;2022-10-14T14:32:44;16.60;99.90
29891;DHT22;16759;49.540;8.642;2022-10-14T14:35:11;16.70;99.90
29891;DHT22;16759;49.540;8.642;2022-10-14T14:37:36;16.70;99.90
29891;DHT22;16759;49.540;8.642;2022-10-14T14:40:16;16.80;99.90
29891;DHT22;16759;49.540;8.642;2022-10-14T14:42:42;16.80;99.90
29891;DHT22;16759;49.540;8.642;2022-10-14T14:45:13;16.70;99.90
29891;DHT22;16759;49.540;8.642;2022-10-14T14:47:41;16.80;99.90
29891;DHT22;16759;49.540;8.642;2022-10-14T14:50:09;16.80;99.90
29891;DHT22;16759;49.540;8.642;2022-10-14T14:52:36;16.80;99.90
29891;DHT22;16759;49.540;8.642;2022-10-14T14:55:02;16.80;99.90
29891;DHT22;16759;49.540;8.642;2022-10-14T14:57:30;16.80;99.90
29891;DHT22;16759;49.540;8.642;2022-10-14T14:59:59;17.00;99.90
29891;DHT22;16759;49.540;8.642;2022-10-14T15:02:25;16.80;99.90
29891;DHT22;16759;49.540;8.642;2022-10-14T15:04:58;16.70;99.90
29891;DHT22;16759;49.540;8.642;2022-10-14T15:07:24;16.80;99.90
29891;DHT22;16759;49.540;8.642;2022-10-14T15:09:51;16.70;99.90
29891;DHT22;16759;49.540;8.642;2022-10-14T15:12:22;16.70;99.90
29891;DHT22;16759;49.540;8.642;2022-10-14T15:14:54;16.70;99.90
29891;DHT22;16759;49.540;8.642;2022-10-14T15:17:23;16.70;99.90
29891;DHT22;16759;49.540;8.642;2022-10-14T15:19:51;16.60;99.90
29891;DHT22;16759;49.540;8.642;2022-10-14T15:32:38;16.30;99.90
29891;DHT22;16759;49.540;8.642;2022-10-14T15:35:10;16.30;99.90
29891;DHT22;16759;49.540;8.642;2022-10-14T15:37:36;16.30;99.90
29891;DHT22;16759;49.540;8.642;2022-10-14T15:40:02;16.30;99.90
29891;DHT22;16759;49.540;8.642;2022-10-14T15:42:28;16.20;99.90
29891;DHT22;16759;49.540;8.642;2022-10-14T15:44:54;16.10;99.90
29891;DHT22;16759;49.540;8.642;2022-10-14T15:47:19;16.10;99.90
29891;DHT22;16759;49.540;8.642;2022-10-14T15:49:45;16.10;99.90
29891;DHT22;16759;49.540;8.642;2022-10-14T15:52:14;16.10;99.90
29891;DHT22;16759;49.540;8.642;2022-10-14T15:54:40;16.10;99.90
29891;DHT22;16759;49.540;8.642;2022-10-14T15:57:05;16.10;99.90
29891;DHT22;16759;49.540;8.642;2022-10-14T15:59:31;16.10;99.90
29891;DHT22;16759;49.540;8.642;2022-10-14T16:01:59;16.10;99.90
29891;DHT22;16759;49.540;8.642;2022-10-14T16:04:27;16.10;99.90
29891;DHT22;16759;49.540;8.642;2022-10-14T16:06:55;16.10;99.90
29891;DHT22;16759;49.540;8.642;2022-10-14T16:09:22;16.10;99.90
29891;DHT22;16759;49.540;8.642;2022-10-14T16:11:51;16.00;99.90
29891;DHT22;16759;49.540;8.642;2022-10-14T16:14:25;16.10;99.90
29891;DHT22;16759;49.540;8.642;2022-10-14T16:16:53;16.00;99.90
29891;DHT22;16759;49.540;8.642;2022-10-14T16:19:19;16.00;99.90
29891;DHT22;16759;49.540;8.642;2022-10-14T16:21:44;16.00;99.90
29891;DHT22;16759;49.540;8.642;2022-10-14T16:24:15;15.90;99.90
29891;DHT22;16759;49.540;8.642;2022-10-14T16:26:45;15.90;99.90
29891;DHT22;16759;49.540;8.642;2022-10-14T16:29:13;15.80;99.90
29891;DHT22;16759;49.540;8.642;2022-10-14T16:31:39;15.90;99.90
29891;DHT22;16759;49.540;8.642;2022-10-14T16:34:05;15.90;99.90
29891;DHT22;16759;49.540;8.642;2022-10-14T16:36:30;15.90;99.90
29891;DHT22;16759;49.540;8.642;2022-10-14T16:38:56;15.80;99.90
29891;DHT22;16759;49.540;8.642;2022-10-14T16:41:21;15.80;99.90
29891;DHT22;16759;49.540;8.642;2022-10-14T16:43:47;15.80;99.90
29891;DHT22;16759;49.540;8.642;2022-10-14T16:46:13;15.80;99.90
29891;DHT22;16759;49.540;8.642;2022-10-14T16:48:38;15.80;99.90
29891;DHT22;16759;49.540;8.642;2022-10-14T16:51:06;15.80;99.90
29891;DHT22;16759;49.540;8.642;2022-10-14T16:53:34;15.80;99.90
29891;DHT22;16759;49.540;8.642;2022-10-14T16:58:55;15.80;99.90
29891;DHT22;16759;49.540;8.642;2022-10-14T17:01:21;15.70;99.90
29891;DHT22;16759;49.540;8.642;2022-10-14T17:03:47;15.70;99.90
29891;DHT22;16759;49.540;8.642;2022-10-14T17:06:15;15.70;99.90
29891;DHT22;16759;49.540;8.642;2022-10-14T17:08:41;15.70;99.90
29891;DHT22;16759;49.540;8.642;2022-10-14T17:11:08;15.70;99.90
29891;DHT22;16759;49.540;8.642;2022-10-14T17:13:34;15.70;99.90
29891;DHT22;16759;49.540;8.642;2022-10-14T17:16:02;15.70;99.90
29891;DHT22;16759;49.540;8.642;2022-10-14T17:18:29;15.60;99.90
29891;DHT22;16759;49.540;8.642;2022-10-14T17:20:58;15.60;99.90
29891;DHT22;16759;49.540;8.642;2022-10-14T17:23:23;15.60;99.90
29891;DHT22;16759;49.540;8.642;2022-10-14T17:25:49;15.60;99.90
29891;DHT22;16759;49.540;8.642;2022-10-14T17:28:14;15.60;99.90
29891;DHT22;16759;49.540;8.642;2022-10-14T17:30:40;15.60;99.90
29891;DHT22;16759;49.540;8.642;2022-10-14T17:33:05;15.60;99.90
29891;DHT22;16759;49.540;8.642;2022-10-14T17:35:32;15.70;99.90
29891;DHT22;16759;49.540;8.642;2022-10-14T17:37:57;15.60;99.90
29891;DHT22;16759;49.540;8.642;2022-10-14T17:40:23;15.60;99.90
29891;DHT22;16759;49.540;8.642;2022-10-14T17:42:48;15.60;99.90
29891;DHT22;16759;49.540;8.642;2022-10-14T17:45:14;15.60;99.90
29891;DHT22;16759;49.540;8.642;2022-10-14T17:47:43;15.60;99.90
29891;DHT22;16759;49.540;8.642;2022-10-14T17:50:09;15.60;99.90
29891;DHT22;16759;49.540;8.642;2022-10-14T17:52:35;15.60;99.90
29891;DHT22;16759;49.540;8.642;2022-10-14T17:55:01;15.60;99.90
29891;DHT22;16759;49.540;8.642;2022-10-14T17:57:26;15.60;99.90
29891;DHT22;16759;49.540;8.642;2022-10-14T17:59:52;15.60;99.90
29891;DHT22;16759;49.540;8.642;2022-10-14T18:02:17;15.60;99.90
29891;DHT22;16759;49.540;8.642;2022-10-14T18:04:43;15.60;99.90
29891;DHT22;16759;49.540;8.642;2022-10-14T18:07:09;15.60;99.90